Time;durP1;ratioP1;P1;durP2;ratioP2;P2;SDS_P1;SDS_P2;PMS_P1;PMS_P2;Temp;Humidity;BMP_temperature;BMP_pressure;BME280_temperature;BME280_humidity;BME280_pressure;Samples;Min_cycle;Max_cycle;Signal;HPM_P1;HPM_P2
2022/03/22 00:00:15;;;;;;;20.80;13.93;;;;;;;;;;4981716;28;20244;-62
2022/03/22 00:02:42;;;;;;;19.17;13.53;;;;;;;;;;4990938;28;20227;-60
2022/03/22 00:05:10;;;;;;;19.70;13.63;;;;;;;;;;4966979;28;20233;-62
2022/03/22 00:07:37;;;;;;;21.90;13.67;;;;;;;;;;4968549;28;20210;-62
2022/03/22 00:10:05;;;;;;;20.90;13.67;;;;;;;;;;5000062;28;20267;-62
2022/03/22 00:12:32;;;;;;;24.70;13.10;;;;;;;;;;4973708;28;20220;-61
2022/03/22 00:15:00;;;;;;;20.73;14.60;;;;;;;;;;4974773;28;20344;-61
2022/03/22 00:17:47;;;;;;;21.40;13.27;;;;;;;;;;4987259;28;20255;-61
2022/03/22 00:20:15;;;;;;;18.33;13.07;;;;;;;;;;4976246;28;20238;-61
2022/03/22 00:22:43;;;;;;;18.43;13.03;;;;;;;;;;4986858;28;20207;-60
2022/03/22 00:25:10;;;;;;;18.03;12.80;;;;;;;;;;4994500;28;20236;-60
2022/03/22 00:28:01;;;;;;;20.07;12.53;;;;;;;;;;4992108;28;20214;-61
2022/03/22 00:30:30;;;;;;;17.63;12.63;;;;;;;;;;4990963;28;20356;-61
2022/03/22 00:32:58;;;;;;;16.63;12.23;;;;;;;;;;4984799;28;20205;-62
2022/03/22 00:35:28;;;;;;;16.03;12.27;;;;;;;;;;4990122;28;20688;-62
2022/03/22 00:37:57;;;;;;;16.83;12.20;;;;;;;;;;4982651;28;21207;-60
2022/03/22 00:40:25;;;;;;;16.30;11.50;;;;;;;;;;4993486;28;20232;-61
2022/03/22 00:42:53;;;;;;;17.97;11.70;;;;;;;;;;4993331;28;20221;-61
2022/03/22 00:45:22;;;;;;;18.33;11.97;;;;;;;;;;4993370;28;20233;-60
2022/03/22 00:47:51;;;;;;;18.63;11.40;;;;;;;;;;4995316;28;20203;-60
2022/03/22 00:50:20;;;;;;;18.07;11.80;;;;;;;;;;4962182;28;20740;-61
2022/03/22 00:52:48;;;;;;;15.57;10.90;;;;;;;;;;4982798;28;20763;-61
2022/03/22 00:55:15;;;;;;;17.20;11.27;;;;;;;;;;4964260;28;20200;-60
2022/03/22 00:57:44;;;;;;;16.17;11.00;;;;;;;;;;4969886;28;20212;-59
2022/03/22 01:00:12;;;;;;;14.53;10.30;;;;;;;;;;4981188;28;20234;-60
2022/03/22 01:02:41;;;;;;;14.43;10.37;;;;;;;;;;4979196;28;20213;-61
2022/03/22 01:05:11;;;;;;;14.37;10.67;;;;;;;;;;4975293;28;20225;-60
2022/03/22 01:07:41;;;;;;;14.70;10.43;;;;;;;;;;4996937;28;20293;-62
2022/03/22 01:10:09;;;;;;;14.83;11.10;;;;;;;;;;4989703;28;20471;-61
2022/03/22 01:12:38;;;;;;;16.00;11.23;;;;;;;;;;4991525;28;20304;-61
2022/03/22 01:15:08;;;;;;;15.43;10.57;;;;;;;;;;4975676;28;20703;-60
2022/03/22 01:17:36;;;;;;;17.23;11.30;;;;;;;;;;4994163;28;20224;-60
2022/03/22 01:20:10;;;;;;;16.20;11.43;;;;;;;;;;4987944;28;20748;-61
2022/03/22 01:22:38;;;;;;;17.40;11.67;;;;;;;;;;4997084;28;20220;-61
2022/03/22 01:25:07;;;;;;;16.57;11.23;;;;;;;;;;4974124;28;20232;-61
2022/03/22 01:27:36;;;;;;;16.87;11.07;;;;;;;;;;4972096;28;20577;-61
2022/03/22 01:30:05;;;;;;;16.97;11.80;;;;;;;;;;4975287;28;20284;-60
2022/03/22 01:32:33;;;;;;;14.53;10.30;;;;;;;;;;4992451;28;20209;-62
2022/03/22 01:35:00;;;;;;;14.13;10.20;;;;;;;;;;4984869;28;20286;-62
2022/03/22 01:37:28;;;;;;;15.90;11.37;;;;;;;;;;4977283;28;20208;-61
2022/03/22 01:39:55;;;;;;;16.97;10.90;;;;;;;;;;4995556;28;20327;-60
2022/03/22 01:42:23;;;;;;;15.40;10.33;;;;;;;;;;4992744;28;20215;-62
2022/03/22 01:44:51;;;;;;;17.27;11.37;;;;;;;;;;4969877;28;20222;-62
2022/03/22 01:47:19;;;;;;;16.57;10.53;;;;;;;;;;4996239;28;20706;-59
2022/03/22 01:49:47;;;;;;;13.83;10.60;;;;;;;;;;4981910;28;20231;-60
2022/03/22 01:52:17;;;;;;;15.07;10.67;;;;;;;;;;4994161;28;20686;-62
2022/03/22 01:54:45;;;;;;;15.50;10.63;;;;;;;;;;4989642;28;20208;-60
2022/03/22 01:57:12;;;;;;;15.13;10.83;;;;;;;;;;4968409;28;20273;-62
2022/03/22 01:59:39;;;;;;;14.63;10.80;;;;;;;;;;4985504;28;20516;-61
2022/03/22 02:07:40;;;;;;;18.23;11.27;;;;;;;;;;4991403;28;21934;-61
2022/03/22 02:10:08;;;;;;;15.33;10.70;;;;;;;;;;4992988;28;20220;-61
2022/03/22 02:12:35;;;;;;;19.33;12.07;;;;;;;;;;4972612;28;20205;-61
2022/03/22 02:15:03;;;;;;;17.47;11.70;;;;;;;;;;4999663;28;20204;-60
2022/03/22 02:17:31;;;;;;;17.40;11.37;;;;;;;;;;5000753;28;20734;-60
2022/03/22 02:19:59;;;;;;;15.50;11.27;;;;;;;;;;4983479;28;20228;-61
2022/03/22 02:22:34;;;;;;;16.53;11.83;;;;;;;;;;4997633;28;20211;-62
2022/03/22 02:25:03;;;;;;;16.27;11.53;;;;;;;;;;4980199;28;20277;-63
2022/03/22 02:27:34;;;;;;;16.50;11.13;;;;;;;;;;4977731;28;20205;-62
2022/03/22 02:30:01;;;;;;;17.97;11.43;;;;;;;;;;4978863;28;20896;-62
2022/03/22 02:32:29;;;;;;;18.30;12.87;;;;;;;;;;4983331;28;21258;-63
2022/03/22 02:34:56;;;;;;;17.10;11.50;;;;;;;;;;4987047;28;20213;-62
2022/03/22 02:37:23;;;;;;;17.53;11.83;;;;;;;;;;4996288;28;20228;-62
2022/03/22 02:39:51;;;;;;;18.03;12.70;;;;;;;;;;4991819;28;20238;-62
2022/03/22 02:42:19;;;;;;;18.10;12.60;;;;;;;;;;4972182;28;20226;-62
2022/03/22 02:44:46;;;;;;;17.57;12.43;;;;;;;;;;4990516;28;20212;-61
2022/03/22 02:47:13;;;;;;;16.83;11.80;;;;;;;;;;4963148;28;20868;-64
2022/03/22 02:49:41;;;;;;;19.00;12.90;;;;;;;;;;4981993;28;20233;-61
2022/03/22 02:52:08;;;;;;;17.73;11.57;;;;;;;;;;4974333;28;20203;-62
2022/03/22 02:54:36;;;;;;;18.03;12.50;;;;;;;;;;4969485;28;21378;-62
2022/03/22 02:57:03;;;;;;;17.90;12.30;;;;;;;;;;4980142;28;20262;-61
2022/03/22 02:59:31;;;;;;;16.60;11.83;;;;;;;;;;4978202;28;20232;-61
2022/03/22 03:01:58;;;;;;;17.43;12.10;;;;;;;;;;4987533;28;20207;-62
2022/03/22 03:04:26;;;;;;;19.83;12.77;;;;;;;;;;4971126;28;20218;-63
2022/03/22 03:06:53;;;;;;;19.47;13.03;;;;;;;;;;4984494;28;20230;-61
2022/03/22 03:09:20;;;;;;;18.93;12.70;;;;;;;;;;4990211;28;20261;-61
2022/03/22 03:11:48;;;;;;;20.50;13.50;;;;;;;;;;4983482;28;20207;-62
2022/03/22 03:17:01;;;;;;;20.07;12.87;;;;;;;;;;4980784;28;20210;-60
2022/03/22 03:19:29;;;;;;;18.23;13.00;;;;;;;;;;4965488;28;20238;-61
2022/03/22 03:21:56;;;;;;;21.50;13.50;;;;;;;;;;4972942;28;20215;-61
2022/03/22 03:24:24;;;;;;;18.37;12.63;;;;;;;;;;4982338;28;20665;-61
2022/03/22 03:26:51;;;;;;;21.03;13.03;;;;;;;;;;4973398;28;20231;-61
2022/03/22 03:29:19;;;;;;;25.20;14.57;;;;;;;;;;4975629;28;20223;-62
2022/03/22 03:31:47;;;;;;;21.67;13.33;;;;;;;;;;4995183;28;20685;-60
2022/03/22 03:34:14;;;;;;;21.10;13.80;;;;;;;;;;4970488;28;20212;-60
2022/03/22 03:36:41;;;;;;;20.57;13.17;;;;;;;;;;4962391;28;20207;-62
2022/03/22 03:39:10;;;;;;;20.20;14.13;;;;;;;;;;4993328;28;20227;-61
2022/03/22 03:41:54;;;;;;;18.93;12.67;;;;;;;;;;4976528;28;20203;-61
2022/03/22 03:47:16;;;;;;;19.40;12.63;;;;;;;;;;4997894;28;20215;-60
2022/03/22 03:49:47;;;;;;;18.70;12.97;;;;;;;;;;4985774;28;20259;-62
2022/03/22 03:52:15;;;;;;;21.37;13.50;;;;;;;;;;4994894;28;20203;-62
2022/03/22 03:54:43;;;;;;;22.93;13.33;;;;;;;;;;4988060;28;20204;-61
2022/03/22 03:57:10;;;;;;;18.67;12.13;;;;;;;;;;4993980;28;20207;-63
2022/03/22 03:59:38;;;;;;;18.87;12.30;;;;;;;;;;4992992;28;20592;-61
2022/03/22 04:02:06;;;;;;;21.90;14.90;;;;;;;;;;4982844;28;20211;-61
2022/03/22 04:04:35;;;;;;;18.13;12.67;;;;;;;;;;4984752;28;20623;-61
2022/03/22 04:07:03;;;;;;;23.70;13.40;;;;;;;;;;4969060;28;20223;-61
2022/03/22 04:09:31;;;;;;;21.87;14.70;;;;;;;;;;4988179;28;20220;-62
2022/03/22 04:11:59;;;;;;;20.93;13.47;;;;;;;;;;4971172;28;20257;-61
2022/03/22 04:14:27;;;;;;;18.43;13.47;;;;;;;;;;4966359;28;20219;-59
2022/03/22 04:16:57;;;;;;;21.20;13.83;;;;;;;;;;4980430;28;20681;-61
2022/03/22 04:19:26;;;;;;;20.93;13.67;;;;;;;;;;4968569;28;20786;-61
2022/03/22 04:21:54;;;;;;;20.13;13.87;;;;;;;;;;4988070;28;20242;-61
2022/03/22 04:24:21;;;;;;;22.47;13.73;;;;;;;;;;4985950;28;20203;-62
2022/03/22 04:26:49;;;;;;;19.93;12.87;;;;;;;;;;4986669;28;20273;-60
2022/03/22 04:34:48;;;;;;;19.43;14.17;;;;;;;;;;4992622;28;20211;-62
2022/03/22 04:37:16;;;;;;;22.63;14.27;;;;;;;;;;4998314;28;20254;-62
2022/03/22 04:39:45;;;;;;;27.93;17.47;;;;;;;;;;4974216;28;20226;-61
2022/03/22 04:42:16;;;;;;;40.07;22.63;;;;;;;;;;4987003;28;20768;-63
2022/03/22 04:44:43;;;;;;;50.40;28.57;;;;;;;;;;4990082;28;20199;-61
2022/03/22 04:47:11;;;;;;;53.33;28.73;;;;;;;;;;4986733;28;20219;-61
2022/03/22 04:49:38;;;;;;;51.17;28.63;;;;;;;;;;4957837;28;20235;-62
2022/03/22 04:57:37;;;;;;;51.30;28.87;;;;;;;;;;4993427;28;20214;-62
2022/03/22 05:00:06;;;;;;;57.10;31.23;;;;;;;;;;4997707;28;20309;-62
2022/03/22 05:02:33;;;;;;;51.03;29.90;;;;;;;;;;4989111;28;20208;-62
2022/03/22 05:05:01;;;;;;;45.90;27.63;;;;;;;;;;4992879;28;20650;-62
2022/03/22 05:07:28;;;;;;;45.37;26.77;;;;;;;;;;4976897;28;20219;-63
2022/03/22 05:09:55;;;;;;;45.23;26.13;;;;;;;;;;4977547;28;20230;-62
2022/03/22 05:12:23;;;;;;;43.97;25.07;;;;;;;;;;4974511;28;20207;-62
2022/03/22 05:14:51;;;;;;;39.53;23.43;;;;;;;;;;4984087;28;20204;-62
2022/03/22 05:17:23;;;;;;;33.30;20.57;;;;;;;;;;4969287;28;20911;-61
2022/03/22 05:19:51;;;;;;;35.83;21.47;;;;;;;;;;4989562;28;20235;-62
2022/03/22 05:22:18;;;;;;;35.43;19.67;;;;;;;;;;4982125;28;20215;-61
2022/03/22 05:24:46;;;;;;;29.17;17.27;;;;;;;;;;4977910;28;20211;-61
2022/03/22 05:27:15;;;;;;;32.97;18.60;;;;;;;;;;4978052;28;20235;-61
2022/03/22 05:29:43;;;;;;;29.07;17.00;;;;;;;;;;4981876;28;20231;-61
2022/03/22 05:32:10;;;;;;;28.53;16.03;;;;;;;;;;4976986;28;20211;-62
2022/03/22 05:34:37;;;;;;;25.47;15.20;;;;;;;;;;4978921;28;20804;-62
2022/03/22 05:37:05;;;;;;;28.07;16.93;;;;;;;;;;4963540;28;20231;-61
2022/03/22 05:39:32;;;;;;;24.97;14.30;;;;;;;;;;4985057;28;20235;-62
2022/03/22 05:42:00;;;;;;;29.07;15.20;;;;;;;;;;4998638;28;20230;-61
2022/03/22 05:44:27;;;;;;;27.47;15.57;;;;;;;;;;4988961;28;20218;-62
2022/03/22 05:46:58;;;;;;;27.33;16.23;;;;;;;;;;4997809;28;20228;-61
2022/03/22 05:49:25;;;;;;;31.67;17.70;;;;;;;;;;5001536;28;20227;-63
2022/03/22 05:51:53;;;;;;;35.97;18.90;;;;;;;;;;4971758;28;20203;-61
2022/03/22 05:54:20;;;;;;;36.53;18.63;;;;;;;;;;4982204;28;20310;-61
2022/03/22 05:56:47;;;;;;;32.40;17.07;;;;;;;;;;4990602;28;20212;-63
2022/03/22 05:59:15;;;;;;;37.07;17.83;;;;;;;;;;4984441;28;20618;-61
2022/03/22 06:01:46;;;;;;;35.10;17.33;;;;;;;;;;4992824;28;20212;-62
2022/03/22 06:04:14;;;;;;;38.77;15.87;;;;;;;;;;5000049;28;20674;-62
2022/03/22 06:06:41;;;;;;;39.00;15.00;;;;;;;;;;4995312;28;20235;-62
2022/03/22 06:09:11;;;;;;;30.87;14.87;;;;;;;;;;4982542;28;20767;-62
2022/03/22 06:11:38;;;;;;;31.97;14.67;;;;;;;;;;4975910;28;20215;-61
2022/03/22 06:14:06;;;;;;;20.90;12.77;;;;;;;;;;4981241;28;20211;-62
2022/03/22 06:16:34;;;;;;;23.03;13.77;;;;;;;;;;4982982;28;20212;-61
2022/03/22 06:19:01;;;;;;;18.47;13.50;;;;;;;;;;4988587;28;20224;-63
2022/03/22 06:21:28;;;;;;;18.77;13.57;;;;;;;;;;4975394;28;20219;-63
2022/03/22 06:23:56;;;;;;;23.47;13.40;;;;;;;;;;4985128;28;20278;-62
2022/03/22 06:26:23;;;;;;;21.20;14.23;;;;;;;;;;4971179;28;20238;-61
2022/03/22 06:28:51;;;;;;;23.63;14.93;;;;;;;;;;4967726;28;20244;-63
2022/03/22 06:31:18;;;;;;;20.70;14.37;;;;;;;;;;4999337;28;20214;-63
2022/03/22 06:33:45;;;;;;;23.27;14.20;;;;;;;;;;4991208;28;20931;-63
2022/03/22 06:36:13;;;;;;;27.10;14.73;;;;;;;;;;4976458;28;20647;-62
2022/03/22 06:38:41;;;;;;;18.57;14.03;;;;;;;;;;4985102;28;20215;-62
2022/03/22 06:41:08;;;;;;;21.77;14.07;;;;;;;;;;4965446;28;20329;-62
2022/03/22 06:43:36;;;;;;;21.27;13.17;;;;;;;;;;4961870;28;21978;-63
2022/03/22 06:46:03;;;;;;;19.17;12.50;;;;;;;;;;4976407;28;20305;-62
2022/03/22 06:48:31;;;;;;;19.03;12.37;;;;;;;;;;4977148;28;20296;-62
2022/03/22 06:50:58;;;;;;;20.80;12.90;;;;;;;;;;4979970;28;20851;-63
2022/03/22 06:53:25;;;;;;;18.87;12.10;;;;;;;;;;4974355;28;20208;-62
2022/03/22 06:55:53;;;;;;;19.40;11.73;;;;;;;;;;4986113;28;20259;-62
2022/03/22 06:58:22;;;;;;;20.07;13.23;;;;;;;;;;4992505;28;20719;-61
2022/03/22 07:00:49;;;;;;;22.43;13.10;;;;;;;;;;4998402;28;20228;-63
2022/03/22 07:03:17;;;;;;;21.80;13.07;;;;;;;;;;4983336;28;20213;-62
2022/03/22 07:05:45;;;;;;;21.97;13.83;;;;;;;;;;4972979;28;20642;-62
2022/03/22 07:08:13;;;;;;;20.30;12.30;;;;;;;;;;4983598;28;20236;-62
2022/03/22 07:10:41;;;;;;;22.70;12.70;;;;;;;;;;4975462;28;20283;-62
2022/03/22 07:13:11;;;;;;;18.60;12.50;;;;;;;;;;4997376;28;20216;-62
2022/03/22 07:15:39;;;;;;;16.80;11.57;;;;;;;;;;5001621;28;20205;-62
2022/03/22 07:18:08;;;;;;;16.97;12.10;;;;;;;;;;4996572;28;20215;-62
2022/03/22 07:20:39;;;;;;;18.07;12.10;;;;;;;;;;4980266;28;20238;-63
2022/03/22 07:23:06;;;;;;;18.40;11.23;;;;;;;;;;4967666;28;20210;-62
2022/03/22 07:25:37;;;;;;;18.80;11.93;;;;;;;;;;4981951;28;20690;-63
2022/03/22 07:28:05;;;;;;;15.00;10.90;;;;;;;;;;4999129;28;20241;-61
2022/03/22 07:30:32;;;;;;;19.50;13.23;;;;;;;;;;4981188;28;20327;-60
2022/03/22 07:33:00;;;;;;;30.93;17.90;;;;;;;;;;4994486;28;20219;-61
2022/03/22 07:35:29;;;;;;;31.83;17.67;;;;;;;;;;4990802;28;20293;-61
2022/03/22 07:37:59;;;;;;;22.97;15.03;;;;;;;;;;4996710;28;20669;-61
2022/03/22 07:40:27;;;;;;;22.60;14.20;;;;;;;;;;4993928;28;20223;-62
2022/03/22 07:42:54;;;;;;;20.37;13.63;;;;;;;;;;4993946;28;20203;-62
2022/03/22 07:45:22;;;;;;;28.50;16.70;;;;;;;;;;4995047;28;20673;-61
2022/03/22 07:47:49;;;;;;;21.97;15.67;;;;;;;;;;4995612;28;20274;-62
2022/03/22 07:53:07;;;;;;;20.57;12.70;;;;;;;;;;4997814;28;20203;-62
2022/03/22 07:55:39;;;;;;;19.37;12.80;;;;;;;;;;4983683;28;20203;-61
2022/03/22 07:58:07;;;;;;;19.77;12.90;;;;;;;;;;5002819;28;20257;-63
2022/03/22 08:00:35;;;;;;;20.47;13.30;;;;;;;;;;4993569;28;20234;-61
2022/03/22 08:03:03;;;;;;;17.37;12.10;;;;;;;;;;4988734;28;21987;-61
2022/03/22 08:05:32;;;;;;;27.20;14.73;;;;;;;;;;4980196;28;20268;-62
2022/03/22 08:08:00;;;;;;;18.63;12.80;;;;;;;;;;4994817;28;20740;-61
2022/03/22 08:10:47;;;;;;;25.07;13.00;;;;;;;;;;4976260;28;20356;-63
2022/03/22 08:13:15;;;;;;;19.07;12.07;;;;;;;;;;4997060;28;20199;-61
2022/03/22 08:15:42;;;;;;;24.33;14.27;;;;;;;;;;4983004;28;20200;-63
2022/03/22 08:18:10;;;;;;;20.73;14.17;;;;;;;;;;4999268;28;20421;-63
2022/03/22 08:20:38;;;;;;;22.77;13.10;;;;;;;;;;4980747;28;20238;-62
2022/03/22 08:23:07;;;;;;;21.17;13.30;;;;;;;;;;4981278;28;20337;-63
2022/03/22 08:25:36;;;;;;;17.03;12.43;;;;;;;;;;4987842;28;20575;-63
2022/03/22 08:28:05;;;;;;;19.97;12.93;;;;;;;;;;4997151;28;20227;-63
2022/03/22 08:30:33;;;;;;;18.90;12.57;;;;;;;;;;4974685;28;20274;-62
2022/03/22 08:33:06;;;;;;;17.43;12.30;;;;;;;;;;4983112;28;20858;-63
2022/03/22 08:35:34;;;;;;;17.13;12.10;;;;;;;;;;4996725;28;20210;-62
2022/03/22 08:38:02;;;;;;;17.37;12.30;;;;;;;;;;4979411;28;20617;-64
2022/03/22 08:40:30;;;;;;;19.27;12.50;;;;;;;;;;4998020;28;20231;-62
2022/03/22 08:42:58;;;;;;;17.53;12.37;;;;;;;;;;4982477;28;20588;-60
2022/03/22 08:45:26;;;;;;;18.47;12.93;;;;;;;;;;4995005;28;20222;-59
2022/03/22 08:47:54;;;;;;;16.93;11.90;;;;;;;;;;4995601;28;20215;-61
2022/03/22 08:50:25;;;;;;;18.93;11.53;;;;;;;;;;4975423;28;20223;-60
2022/03/22 08:52:56;;;;;;;16.13;11.73;;;;;;;;;;4982499;28;20203;-61
2022/03/22 08:55:25;;;;;;;17.90;11.87;;;;;;;;;;4990618;28;20215;-61
2022/03/22 08:57:54;;;;;;;20.13;12.23;;;;;;;;;;4969287;28;20697;-60
2022/03/22 09:00:24;;;;;;;17.70;12.33;;;;;;;;;;4993331;28;20227;-61
2022/03/22 09:02:52;;;;;;;19.70;12.33;;;;;;;;;;4994148;28;20617;-61
2022/03/22 09:08:06;;;;;;;19.53;12.60;;;;;;;;;;4992821;28;20223;-61
2022/03/22 09:10:34;;;;;;;21.30;13.13;;;;;;;;;;4976256;28;20238;-61
2022/03/22 09:13:02;;;;;;;18.13;11.87;;;;;;;;;;4994081;28;20669;-62
2022/03/22 09:15:30;;;;;;;19.13;12.83;;;;;;;;;;4978275;28;20232;-63
2022/03/22 09:17:58;;;;;;;19.20;13.23;;;;;;;;;;4972934;28;20212;-64
2022/03/22 09:20:31;;;;;;;16.87;12.10;;;;;;;;;;4995696;28;20621;-60
2022/03/22 09:23:02;;;;;;;19.33;12.57;;;;;;;;;;4996308;28;20581;-62
2022/03/22 09:25:29;;;;;;;21.43;12.27;;;;;;;;;;5006822;28;20217;-62
2022/03/22 09:28:00;;;;;;;17.90;11.90;;;;;;;;;;4996806;28;20227;-61
2022/03/22 09:30:28;;;;;;;16.77;12.00;;;;;;;;;;5001432;28;20605;-61
2022/03/22 09:32:57;;;;;;;17.30;11.93;;;;;;;;;;4985847;28;20567;-62
2022/03/22 09:35:25;;;;;;;16.30;11.03;;;;;;;;;;4973929;28;20558;-63
2022/03/22 09:37:52;;;;;;;19.00;11.77;;;;;;;;;;5004108;28;21576;-62
2022/03/22 09:40:21;;;;;;;18.30;11.43;;;;;;;;;;4988276;28;20751;-64
2022/03/22 09:42:49;;;;;;;22.47;12.97;;;;;;;;;;4997997;28;20200;-60
2022/03/22 09:45:17;;;;;;;20.47;11.70;;;;;;;;;;4978390;28;20239;-61
2022/03/22 09:47:45;;;;;;;17.67;11.67;;;;;;;;;;5002896;28;20223;-61
2022/03/22 09:50:17;;;;;;;15.77;11.60;;;;;;;;;;4973714;28;20224;-61
2022/03/22 09:52:44;;;;;;;17.63;11.77;;;;;;;;;;4996559;28;20258;-61
2022/03/22 09:55:13;;;;;;;20.63;12.73;;;;;;;;;;4983556;28;20247;-61
2022/03/22 09:57:41;;;;;;;18.10;11.60;;;;;;;;;;4997689;28;20352;-61
2022/03/22 10:00:09;;;;;;;19.57;12.13;;;;;;;;;;4984382;28;20234;-61
2022/03/22 10:02:37;;;;;;;17.73;12.43;;;;;;;;;;4995048;28;20266;-62
2022/03/22 10:05:05;;;;;;;18.13;11.87;;;;;;;;;;4996776;28;20780;-63
2022/03/22 10:07:32;;;;;;;22.33;12.13;;;;;;;;;;4991386;28;20231;-61
2022/03/22 10:10:02;;;;;;;20.20;12.03;;;;;;;;;;4992984;28;20242;-61
2022/03/22 10:12:35;;;;;;;20.63;12.37;;;;;;;;;;4981746;28;20212;-62
2022/03/22 10:15:13;;;;;;;17.17;12.20;;;;;;;;;;4993998;28;20207;-60
2022/03/22 10:17:41;;;;;;;28.30;18.20;;;;;;;;;;4989905;28;20208;-61
2022/03/22 10:20:10;;;;;;;18.57;12.23;;;;;;;;;;4988817;28;20301;-62
2022/03/22 10:22:37;;;;;;;17.97;13.10;;;;;;;;;;4997440;28;20281;-60
2022/03/22 10:25:06;;;;;;;16.73;11.70;;;;;;;;;;4996529;28;21113;-60
2022/03/22 10:27:37;;;;;;;18.47;11.97;;;;;;;;;;4973178;28;20258;-63
2022/03/22 10:30:25;;;;;;;18.63;12.53;;;;;;;;;;4988680;28;20231;-60
2022/03/22 10:32:52;;;;;;;18.97;12.87;;;;;;;;;;4999822;28;20630;-60
2022/03/22 10:35:23;;;;;;;18.63;12.13;;;;;;;;;;4992555;28;20204;-61
2022/03/22 10:37:59;;;;;;;20.70;12.23;;;;;;;;;;4995890;28;20228;-62
2022/03/22 10:40:40;;;;;;;16.10;11.90;;;;;;;;;;4995083;28;20306;-62
2022/03/22 10:43:09;;;;;;;15.07;11.80;;;;;;;;;;4980489;28;20211;-61
2022/03/22 10:45:49;;;;;;;15.43;10.73;;;;;;;;;;4976638;28;20680;-61
2022/03/22 10:48:26;;;;;;;14.23;11.73;;;;;;;;;;4963252;28;20235;-62
2022/03/22 10:50:55;;;;;;;18.73;11.17;;;;;;;;;;4999368;28;20301;-60
2022/03/22 10:53:26;;;;;;;12.53;8.77;;;;;;;;;;4995504;28;20217;-62
2022/03/22 10:55:58;;;;;;;14.57;9.03;;;;;;;;;;4995351;28;20587;-62
2022/03/22 10:58:27;;;;;;;13.70;9.00;;;;;;;;;;4998817;28;20603;-61
2022/03/22 11:00:55;;;;;;;11.00;8.73;;;;;;;;;;4998533;28;20274;-61
2022/03/22 11:03:24;;;;;;;11.77;8.07;;;;;;;;;;4986468;28;20211;-62
2022/03/22 11:05:53;;;;;;;12.43;8.50;;;;;;;;;;4988796;28;20313;-62
2022/03/22 11:08:22;;;;;;;14.23;8.73;;;;;;;;;;4971206;28;20734;-61
2022/03/22 11:10:51;;;;;;;14.23;8.83;;;;;;;;;;4991434;28;20321;-62
2022/03/22 11:13:18;;;;;;;14.70;9.43;;;;;;;;;;4997885;28;20226;-61
2022/03/22 11:15:47;;;;;;;13.80;9.50;;;;;;;;;;4981142;28;20208;-62
2022/03/22 11:18:15;;;;;;;12.73;9.10;;;;;;;;;;4995315;28;20212;-62
2022/03/22 11:20:53;;;;;;;13.67;9.43;;;;;;;;;;4993394;28;20250;-61
2022/03/22 11:23:21;;;;;;;14.53;9.67;;;;;;;;;;4987194;28;20218;-61
2022/03/22 11:25:49;;;;;;;12.88;9.57;;;;;;;;;;4999312;28;20212;-60
2022/03/22 11:28:21;;;;;;;13.60;10.60;;;;;;;;;;4993563;28;21183;-61
2022/03/22 11:30:49;;;;;;;12.52;9.18;;;;;;;;;;4985776;28;20817;-63
2022/03/22 11:36:14;;;;;;;13.48;10.65;;;;;;;;;;4999571;28;20203;-61
2022/03/22 11:38:49;;;;;;;14.43;10.32;;;;;;;;;;4990475;28;20258;-63
2022/03/22 11:44:12;;;;;;;13.75;10.82;;;;;;;;;;4988386;28;20204;-61
2022/03/22 11:46:40;;;;;;;17.75;11.70;;;;;;;;;;4997134;28;20234;-62
2022/03/22 11:49:14;;;;;;;15.05;11.30;;;;;;;;;;4997903;28;20318;-61
2022/03/22 11:51:47;;;;;;;16.45;10.80;;;;;;;;;;4998268;28;20270;-62
2022/03/22 11:54:15;;;;;;;13.95;10.88;;;;;;;;;;4998599;28;20199;-61
2022/03/22 11:56:50;;;;;;;18.00;11.55;;;;;;;;;;5001995;28;20258;-61
2022/03/22 11:59:19;;;;;;;13.25;10.20;;;;;;;;;;4984897;28;20824;-61
2022/03/22 12:02:00;;;;;;;9.93;8.85;;;;;;;;;;4995502;28;20669;-61
2022/03/22 12:04:38;;;;;;;7.30;6.45;;;;;;;;;;4997351;28;20269;-61
2022/03/22 12:07:07;;;;;;;8.73;6.90;;;;;;;;;;4990142;28;20203;-63
2022/03/22 12:09:38;;;;;;;9.95;7.22;;;;;;;;;;4996440;28;20519;-61
2022/03/22 12:12:06;;;;;;;12.32;7.50;;;;;;;;;;4998712;28;20212;-61
2022/03/22 12:14:34;;;;;;;12.23;6.82;;;;;;;;;;4995674;28;20208;-61
2022/03/22 12:17:03;;;;;;;7.22;5.88;;;;;;;;;;5000848;28;20215;-60
2022/03/22 12:19:32;;;;;;;6.90;6.20;;;;;;;;;;4976905;28;20223;-61
2022/03/22 12:22:02;;;;;;;7.32;5.90;;;;;;;;;;4996732;28;20207;-61
2022/03/22 12:24:34;;;;;;;9.30;6.13;;;;;;;;;;4998794;28;20632;-62
2022/03/22 12:27:02;;;;;;;8.70;6.53;;;;;;;;;;5001628;28;20212;-61
2022/03/22 12:29:30;;;;;;;8.38;6.45;;;;;;;;;;4994567;28;20645;-63
2022/03/22 12:32:06;;;;;;;7.53;6.40;;;;;;;;;;5002911;28;20207;-62
2022/03/22 12:34:36;;;;;;;7.35;6.22;;;;;;;;;;4969002;28;20219;-64
2022/03/22 12:37:07;;;;;;;9.77;6.60;;;;;;;;;;5000085;28;20683;-61
2022/03/22 12:39:38;;;;;;;8.10;6.45;;;;;;;;;;4995996;28;20231;-61
2022/03/22 12:42:06;;;;;;;9.02;6.90;;;;;;;;;;5004648;28;20249;-62
2022/03/22 12:44:34;;;;;;;8.25;6.97;;;;;;;;;;4998817;28;20196;-62
2022/03/22 12:47:21;;;;;;;9.65;7.25;;;;;;;;;;4982460;28;20306;-63
2022/03/22 12:49:48;;;;;;;8.63;6.18;;;;;;;;;;4995354;28;20234;-62
2022/03/22 12:52:16;;;;;;;7.22;5.88;;;;;;;;;;4992962;28;20207;-63
2022/03/22 12:54:44;;;;;;;9.68;7.80;;;;;;;;;;4996343;28;20666;-62
2022/03/22 12:57:15;;;;;;;8.25;7.43;;;;;;;;;;4996921;28;20616;-63
2022/03/22 12:59:43;;;;;;;10.45;8.00;;;;;;;;;;5000886;28;20224;-62
2022/03/22 13:02:14;;;;;;;10.35;7.70;;;;;;;;;;5004523;28;20222;-63
2022/03/22 13:04:49;;;;;;;8.85;7.95;;;;;;;;;;5000905;28;20206;-62
2022/03/22 13:07:26;;;;;;;8.65;7.35;;;;;;;;;;5000592;28;20207;-63
2022/03/22 13:12:41;;;;;;;10.88;8.35;;;;;;;;;;4999856;28;20222;-62
2022/03/22 13:15:16;;;;;;;9.82;8.30;;;;;;;;;;4994118;28;20615;-62
2022/03/22 13:17:45;;;;;;;10.32;8.48;;;;;;;;;;4999832;28;20203;-62
2022/03/22 13:20:24;;;;;;;9.32;7.32;;;;;;;;;;5004201;28;20912;-62
2022/03/22 13:22:59;;;;;;;12.27;8.82;;;;;;;;;;5006497;28;20206;-62
2022/03/22 13:25:36;;;;;;;8.93;7.30;;;;;;;;;;4999779;28;20214;-63
2022/03/22 13:28:08;;;;;;;10.93;7.60;;;;;;;;;;5001452;28;20230;-63
2022/03/22 13:30:37;;;;;;;9.82;7.15;;;;;;;;;;5007421;28;20581;-62
2022/03/22 13:33:13;;;;;;;9.73;7.55;;;;;;;;;;4988032;28;20298;-62
2022/03/22 13:36:04;;;;;;;8.02;6.93;;;;;;;;;;4986131;28;20204;-62
2022/03/22 13:38:33;;;;;;;9.50;7.47;;;;;;;;;;5007964;28;20219;-62
2022/03/22 13:41:06;;;;;;;7.90;7.10;;;;;;;;;;5004002;28;20234;-62
2022/03/22 13:43:43;;;;;;;9.13;7.40;;;;;;;;;;4977667;28;20276;-62
2022/03/22 13:46:11;;;;;;;8.15;7.13;;;;;;;;;;4990647;28;20593;-62
2022/03/22 13:48:53;;;;;;;9.40;6.70;;;;;;;;;;5001837;28;20261;-63
2022/03/22 13:51:22;;;;;;;8.00;7.03;;;;;;;;;;5001857;28;20204;-61
2022/03/22 13:53:50;;;;;;;8.32;7.25;;;;;;;;;;4999504;28;20203;-62
2022/03/22 13:56:22;;;;;;;8.50;6.32;;;;;;;;;;5000648;28;20203;-62
2022/03/22 13:58:49;;;;;;;9.15;7.05;;;;;;;;;;4995758;28;20208;-61
2022/03/22 14:01:17;;;;;;;8.50;7.18;;;;;;;;;;4992232;28;20610;-62
2022/03/22 14:03:45;;;;;;;7.60;6.80;;;;;;;;;;4995137;28;20247;-61
2022/03/22 14:06:13;;;;;;;11.13;9.15;;;;;;;;;;4996335;28;20213;-61
2022/03/22 14:08:40;;;;;;;7.78;6.95;;;;;;;;;;4988203;28;20231;-62
2022/03/22 14:11:07;;;;;;;8.65;7.25;;;;;;;;;;5002561;28;20231;-61
2022/03/22 14:13:35;;;;;;;9.45;7.15;;;;;;;;;;4994171;28;20238;-61
2022/03/22 14:16:03;;;;;;;7.90;7.07;;;;;;;;;;5001349;28;20231;-62
2022/03/22 14:18:30;;;;;;;9.68;7.22;;;;;;;;;;4993748;28;20550;-62
2022/03/22 14:20:57;;;;;;;8.80;7.05;;;;;;;;;;4998563;28;20224;-61
2022/03/22 14:23:29;;;;;;;8.25;7.00;;;;;;;;;;5000370;28;20218;-61
2022/03/22 14:25:56;;;;;;;8.82;6.80;;;;;;;;;;5006244;28;20250;-62
2022/03/22 14:28:26;;;;;;;8.02;6.38;;;;;;;;;;4993858;28;20246;-61
2022/03/22 14:30:54;;;;;;;8.35;7.20;;;;;;;;;;5001405;28;20259;-62
2022/03/22 14:33:21;;;;;;;7.05;6.35;;;;;;;;;;4982589;28;20212;-62
2022/03/22 14:35:57;;;;;;;7.95;6.97;;;;;;;;;;4989439;28;20315;-63
2022/03/22 14:38:31;;;;;;;8.43;6.93;;;;;;;;;;4990206;28;20211;-63
2022/03/22 14:41:03;;;;;;;6.85;6.15;;;;;;;;;;4998224;28;20600;-62
2022/03/22 14:43:31;;;;;;;9.85;7.72;;;;;;;;;;5001306;28;20218;-63
2022/03/22 14:45:58;;;;;;;7.43;6.70;;;;;;;;;;4989562;28;20216;-62
2022/03/22 14:48:26;;;;;;;9.70;6.75;;;;;;;;;;5004420;28;20251;-62
2022/03/22 14:50:55;;;;;;;12.85;7.18;;;;;;;;;;4995451;28;20613;-62
2022/03/22 14:58:56;;;;;;;7.60;6.80;;;;;;;;;;4999013;28;20216;-64
2022/03/22 15:01:25;;;;;;;10.05;7.10;;;;;;;;;;5005590;28;20204;-63
2022/03/22 15:03:54;;;;;;;8.07;7.28;;;;;;;;;;4997885;28;20945;-61
2022/03/22 15:06:23;;;;;;;8.20;7.30;;;;;;;;;;5001349;28;20211;-62
2022/03/22 15:08:51;;;;;;;9.80;6.78;;;;;;;;;;4981786;28;20232;-63
2022/03/22 15:11:20;;;;;;;9.75;7.13;;;;;;;;;;4988654;28;20290;-62
2022/03/22 15:13:49;;;;;;;9.07;7.28;;;;;;;;;;4986630;28;20735;-62
2022/03/22 15:16:17;;;;;;;9.25;7.30;;;;;;;;;;4995375;28;20607;-63